KSEAKNOW

Guest
Details From KSEA - Seattle Tacoma Intl
To KNOW - Port Angeles Cgas
Flight Number -
Tags Generated
Created
Modified
Stats Distance 60 nm / 112 km
Max Altitude 0 ft / 0 m
Waypoints 2
Social Downloads 6
Likes 0
Share VATSIM

Download

Looking for another format? Having issues loading an existing format? Contact us
Advertisement - Login to hide

Notes

Generated

Route

KSEA KNOW

ID Type Via Altitude Latitude Longitude Leg Dist Tot Dist Heading (true) Name
O KSEA APT - 0 ft / 0 m 47.46383˚ -122.31786˚ - 0 nm - -
O KNOW APT - 0 ft / 0 m 48.14167˚ -123.42315˚ 60 nm 60 nm 313° / 312° -

Altitude Profile

Advertisement - Login to hide

KSEA

Details ICAO KSEA (SEA)
Name Seattle Tacoma Intl
Region United States
Timezone America/Los_Angeles (UTC-7.0)
Stats Elevation 433 ft / 132 m (AMSL)
Location 47.450188° -122.312320°
Runways 3
Magnetic Variation 15.622° E

METAR

KSEA 261753Z 20006KT 10SM FEW025 BKN030 BKN180 15/07 A3017 RMK AO2 SLP221 T01500072 10156 20111 50005

Decode

TAF

KSEA 261735Z 2618/2724 20006KT P6SM BKN025 BKN040 FM261900 23005KT P6SM SCT030 SCT040 FM262300 26005KT P6SM SCT035 BKN045 FM270100 33005KT P6SM BKN045 FM270600 04004KT P6SM SCT045 SCT200 FM271000 16003KT P6SM SCT020 BKN030 FM271800 24005KT P6SM SCT030 FM272200 27005KT P6SM SCT040

Decode

Departure Runways

ID Width Length Bearing (true) Bearing (mag) Surface Threshold Offset Overrun Length
16C 151 ft / 46 m 9,429 ft / 2,874 m 180.34° 164.72° Concrete 0 ft / 0 m 223 ft / 68 m
16L 151 ft / 46 m 11,904 ft / 3,628 m 180.34° 164.72° Concrete 0 ft / 0 m 151 ft / 46 m
16R 151 ft / 46 m 8,503 ft / 2,592 m 180.34° 164.72° Concrete 0 ft / 0 m 164 ft / 50 m
34C 151 ft / 46 m 9,429 ft / 2,874 m 0.34° 344.72° Concrete 0 ft / 0 m 394 ft / 120 m
34L 151 ft / 46 m 8,503 ft / 2,592 m 0.34° 344.72° Concrete 0 ft / 0 m 394 ft / 120 m
34R 151 ft / 46 m 11,904 ft / 3,628 m 0.34° 344.72° Concrete 0 ft / 0 m 400 ft / 122 m

KNOW

Details ICAO KNOW (NOW)
Name PORT ANGELES CGAS
Region United States
Timezone Unknown (UTC+0.0)
Stats Elevation 13 ft / 4 m (AMSL)
Location 48.141293° -123.413955°
Runways 1
Magnetic Variation 15.978° E

METAR

KNOW 261815Z AUTO 29011G15KT 10SM CLR 14/09 A3016 RMK AO2 T01360086

Decode

TAF

Not found

Destination Runways

ID Width Length Bearing (true) Bearing (mag) Surface Threshold Offset Overrun Length
07 151 ft / 46 m 4,488 ft / 1,368 m 93.55° 77.57° Asphalt 0 ft / 0 m 0 ft / 0 m
25 151 ft / 46 m 4,488 ft / 1,368 m 273.57° 257.59° Asphalt 0 ft / 0 m 0 ft / 0 m

Popular Alternatives